sensor_id;sensor_type;location;lat;lon;timestamp;temperature;humidity
21861;DHT22;11095;48.066;8.540;2023-07-02T00:00:37;15.70;99.90
21861;DHT22;11095;48.066;8.540;2023-07-02T00:03:04;15.70;99.90
21861;DHT22;11095;48.066;8.540;2023-07-02T00:05:29;15.70;99.90
21861;DHT22;11095;48.066;8.540;2023-07-02T00:07:55;15.70;99.90
21861;DHT22;11095;48.066;8.540;2023-07-02T00:10:21;15.70;99.90
21861;DHT22;11095;48.066;8.540;2023-07-02T00:12:47;15.70;99.90
21861;DHT22;11095;48.066;8.540;2023-07-02T00:15:12;15.70;99.90
21861;DHT22;11095;48.066;8.540;2023-07-02T00:17:38;15.70;99.90
21861;DHT22;11095;48.066;8.540;2023-07-02T00:20:06;15.70;99.90
21861;DHT22;11095;48.066;8.540;2023-07-02T00:22:32;15.80;99.90
21861;DHT22;11095;48.066;8.540;2023-07-02T00:25:01;15.70;99.90
21861;DHT22;11095;48.066;8.540;2023-07-02T00:27:27;15.70;99.90
21861;DHT22;11095;48.066;8.540;2023-07-02T00:29:53;15.70;99.90
21861;DHT22;11095;48.066;8.540;2023-07-02T00:32:18;15.70;99.90
21861;DHT22;11095;48.066;8.540;2023-07-02T00:34:44;15.70;99.90
21861;DHT22;11095;48.066;8.540;2023-07-02T00:37:09;15.60;99.90
21861;DHT22;11095;48.066;8.540;2023-07-02T00:39:35;15.60;99.90
21861;DHT22;11095;48.066;8.540;2023-07-02T00:42:01;15.60;99.90
21861;DHT22;11095;48.066;8.540;2023-07-02T00:44:28;15.50;99.90
21861;DHT22;11095;48.066;8.540;2023-07-02T00:46:53;15.50;99.90
21861;DHT22;11095;48.066;8.540;2023-07-02T00:49:19;15.30;99.90
21861;DHT22;11095;48.066;8.540;2023-07-02T00:51:45;15.30;99.90
21861;DHT22;11095;48.066;8.540;2023-07-02T00:54:11;15.20;99.90
21861;DHT22;11095;48.066;8.540;2023-07-02T00:56:36;15.10;99.90
21861;DHT22;11095;48.066;8.540;2023-07-02T00:59:02;15.10;99.90
21861;DHT22;11095;48.066;8.540;2023-07-02T01:01:28;15.10;99.90
21861;DHT22;11095;48.066;8.540;2023-07-02T01:03:58;15.10;99.90
21861;DHT22;11095;48.066;8.540;2023-07-02T01:06:31;15.10;99.90
21861;DHT22;11095;48.066;8.540;2023-07-02T01:08:58;15.10;99.90
21861;DHT22;11095;48.066;8.540;2023-07-02T01:11:31;15.10;99.90
21861;DHT22;11095;48.066;8.540;2023-07-02T01:14:15;15.10;99.90
21861;DHT22;11095;48.066;8.540;2023-07-02T01:16:42;15.10;99.90
21861;DHT22;11095;48.066;8.540;2023-07-02T01:19:16;15.00;99.90
21861;DHT22;11095;48.066;8.540;2023-07-02T01:21:46;15.00;99.90
21861;DHT22;11095;48.066;8.540;2023-07-02T01:24:12;15.00;99.90
21861;DHT22;11095;48.066;8.540;2023-07-02T01:26:40;15.00;99.90
21861;DHT22;11095;48.066;8.540;2023-07-02T01:29:15;14.90;99.90
21861;DHT22;11095;48.066;8.540;2023-07-02T01:31:41;14.90;99.90
21861;DHT22;11095;48.066;8.540;2023-07-02T01:34:07;14.90;99.90
21861;DHT22;11095;48.066;8.540;2023-07-02T01:36:33;14.80;99.90
21861;DHT22;11095;48.066;8.540;2023-07-02T01:38:59;14.80;99.90
21861;DHT22;11095;48.066;8.540;2023-07-02T01:41:24;14.80;99.90
21861;DHT22;11095;48.066;8.540;2023-07-02T01:43:50;14.70;99.90
21861;DHT22;11095;48.066;8.540;2023-07-02T01:46:15;14.70;99.90
21861;DHT22;11095;48.066;8.540;2023-07-02T01:48:41;14.70;99.90
21861;DHT22;11095;48.066;8.540;2023-07-02T01:51:06;14.70;99.90
21861;DHT22;11095;48.066;8.540;2023-07-02T01:53:32;14.70;99.90
21861;DHT22;11095;48.066;8.540;2023-07-02T01:55:58;14.70;99.90
21861;DHT22;11095;48.066;8.540;2023-07-02T01:58:24;14.70;99.90
21861;DHT22;11095;48.066;8.540;2023-07-02T02:00:50;14.70;99.90
21861;DHT22;11095;48.066;8.540;2023-07-02T02:03:15;14.70;99.90
21861;DHT22;11095;48.066;8.540;2023-07-02T02:05:41;14.70;99.90
21861;DHT22;11095;48.066;8.540;2023-07-02T02:08:06;14.70;99.90
21861;DHT22;11095;48.066;8.540;2023-07-02T02:10:32;14.70;99.90
21861;DHT22;11095;48.066;8.540;2023-07-02T02:12:57;14.80;99.90
21861;DHT22;11095;48.066;8.540;2023-07-02T02:15:23;14.80;99.90
21861;DHT22;11095;48.066;8.540;2023-07-02T02:17:49;14.90;99.90
21861;DHT22;11095;48.066;8.540;2023-07-02T02:20:14;14.90;99.90
21861;DHT22;11095;48.066;8.540;2023-07-02T02:22:40;14.90;99.90
21861;DHT22;11095;48.066;8.540;2023-07-02T02:25:06;15.00;99.90
21861;DHT22;11095;48.066;8.540;2023-07-02T02:27:31;15.00;99.90
21861;DHT22;11095;48.066;8.540;2023-07-02T02:29:57;15.00;99.90
21861;DHT22;11095;48.066;8.540;2023-07-02T02:32:22;15.10;99.90
21861;DHT22;11095;48.066;8.540;2023-07-02T02:34:49;15.10;99.90
21861;DHT22;11095;48.066;8.540;2023-07-02T02:37:14;15.10;99.90
21861;DHT22;11095;48.066;8.540;2023-07-02T02:39:40;15.10;99.90
21861;DHT22;11095;48.066;8.540;2023-07-02T02:42:05;15.20;99.90
21861;DHT22;11095;48.066;8.540;2023-07-02T02:44:31;15.20;99.90
21861;DHT22;11095;48.066;8.540;2023-07-02T02:46:57;15.20;99.90
21861;DHT22;11095;48.066;8.540;2023-07-02T02:49:23;15.20;99.90
21861;DHT22;11095;48.066;8.540;2023-07-02T02:51:49;15.20;99.90
21861;DHT22;11095;48.066;8.540;2023-07-02T02:54:14;15.30;99.90
21861;DHT22;11095;48.066;8.540;2023-07-02T02:56:40;15.30;99.90
21861;DHT22;11095;48.066;8.540;2023-07-02T02:59:05;15.30;99.90
21861;DHT22;11095;48.066;8.540;2023-07-02T03:01:31;15.30;99.90
21861;DHT22;11095;48.066;8.540;2023-07-02T03:03:58;15.30;99.90
21861;DHT22;11095;48.066;8.540;2023-07-02T03:06:24;15.30;99.90
21861;DHT22;11095;48.066;8.540;2023-07-02T03:08:50;15.30;99.90
21861;DHT22;11095;48.066;8.540;2023-07-02T03:11:15;15.30;99.90
21861;DHT22;11095;48.066;8.540;2023-07-02T03:13:41;15.30;99.90
21861;DHT22;11095;48.066;8.540;2023-07-02T03:16:06;15.30;99.90
21861;DHT22;11095;48.066;8.540;2023-07-02T03:18:32;15.30;99.90
21861;DHT22;11095;48.066;8.540;2023-07-02T03:20:58;15.30;99.90
21861;DHT22;11095;48.066;8.540;2023-07-02T03:23:24;15.30;99.90
21861;DHT22;11095;48.066;8.540;2023-07-02T03:25:49;15.30;99.90
21861;DHT22;11095;48.066;8.540;2023-07-02T03:28:15;15.20;99.90
21861;DHT22;11095;48.066;8.540;2023-07-02T03:30:40;15.20;99.90
21861;DHT22;11095;48.066;8.540;2023-07-02T03:33:07;15.30;99.90
21861;DHT22;11095;48.066;8.540;2023-07-02T03:35:33;15.20;99.90
21861;DHT22;11095;48.066;8.540;2023-07-02T03:37:58;15.20;99.90
21861;DHT22;11095;48.066;8.540;2023-07-02T03:40:24;15.20;99.90
21861;DHT22;11095;48.066;8.540;2023-07-02T03:42:50;15.20;99.90
21861;DHT22;11095;48.066;8.540;2023-07-02T03:45:15;15.20;99.90
21861;DHT22;11095;48.066;8.540;2023-07-02T03:47:41;15.20;99.90
21861;DHT22;11095;48.066;8.540;2023-07-02T03:50:06;15.20;99.90
21861;DHT22;11095;48.066;8.540;2023-07-02T03:52:32;15.20;99.90
21861;DHT22;11095;48.066;8.540;2023-07-02T03:54:58;15.20;99.90
21861;DHT22;11095;48.066;8.540;2023-07-02T03:57:23;15.20;99.90
21861;DHT22;11095;48.066;8.540;2023-07-02T03:59:49;15.20;99.90
21861;DHT22;11095;48.066;8.540;2023-07-02T04:02:14;15.20;99.90
21861;DHT22;11095;48.066;8.540;2023-07-02T04:04:40;15.20;99.90
21861;DHT22;11095;48.066;8.540;2023-07-02T04:07:05;15.20;99.90
21861;DHT22;11095;48.066;8.540;2023-07-02T04:09:31;15.30;99.90
21861;DHT22;11095;48.066;8.540;2023-07-02T04:11:59;15.30;99.90
21861;DHT22;11095;48.066;8.540;2023-07-02T04:14:24;15.30;99.90
21861;DHT22;11095;48.066;8.540;2023-07-02T04:16:50;15.30;99.90
21861;DHT22;11095;48.066;8.540;2023-07-02T04:19:15;15.30;99.90
21861;DHT22;11095;48.066;8.540;2023-07-02T04:21:41;15.30;99.90
21861;DHT22;11095;48.066;8.540;2023-07-02T04:24:07;15.30;99.90
21861;DHT22;11095;48.066;8.540;2023-07-02T04:26:32;15.30;99.90
21861;DHT22;11095;48.066;8.540;2023-07-02T04:28:58;15.30;99.90
21861;DHT22;11095;48.066;8.540;2023-07-02T04:31:24;15.40;99.90
21861;DHT22;11095;48.066;8.540;2023-07-02T04:33:49;15.40;99.90
21861;DHT22;11095;48.066;8.540;2023-07-02T04:36:15;15.40;99.90
21861;DHT22;11095;48.066;8.540;2023-07-02T04:38:41;15.40;99.90
21861;DHT22;11095;48.066;8.540;2023-07-02T04:41:06;15.40;99.90
21861;DHT22;11095;48.066;8.540;2023-07-02T04:43:32;15.40;99.90
21861;DHT22;11095;48.066;8.540;2023-07-02T04:45:58;15.40;99.90
21861;DHT22;11095;48.066;8.540;2023-07-02T04:48:23;15.50;99.90
21861;DHT22;11095;48.066;8.540;2023-07-02T04:50:49;15.50;99.90
21861;DHT22;11095;48.066;8.540;2023-07-02T04:53:15;15.50;99.90
21861;DHT22;11095;48.066;8.540;2023-07-02T04:55:41;15.50;99.90
21861;DHT22;11095;48.066;8.540;2023-07-02T04:58:06;15.50;99.90
21861;DHT22;11095;48.066;8.540;2023-07-02T05:00:32;15.50;99.90
21861;DHT22;11095;48.066;8.540;2023-07-02T05:02:58;15.50;99.90
21861;DHT22;11095;48.066;8.540;2023-07-02T05:05:23;15.50;99.90
21861;DHT22;11095;48.066;8.540;2023-07-02T05:07:49;15.50;99.90
21861;DHT22;11095;48.066;8.540;2023-07-02T05:10:14;15.50;99.90
21861;DHT22;11095;48.066;8.540;2023-07-02T05:12:40;15.50;99.90
21861;DHT22;11095;48.066;8.540;2023-07-02T05:15:06;15.60;99.90
21861;DHT22;11095;48.066;8.540;2023-07-02T05:17:32;15.60;99.90
21861;DHT22;11095;48.066;8.540;2023-07-02T05:20:00;15.70;99.90
21861;DHT22;11095;48.066;8.540;2023-07-02T05:22:26;15.70;99.90
21861;DHT22;11095;48.066;8.540;2023-07-02T05:24:51;15.80;99.90
21861;DHT22;11095;48.066;8.540;2023-07-02T05:27:17;15.80;99.90
21861;DHT22;11095;48.066;8.540;2023-07-02T05:29:43;15.90;99.90
21861;DHT22;11095;48.066;8.540;2023-07-02T05:32:09;15.90;99.90
21861;DHT22;11095;48.066;8.540;2023-07-02T05:34:34;16.00;99.90
21861;DHT22;11095;48.066;8.540;2023-07-02T05:37:00;16.10;99.90
21861;DHT22;11095;48.066;8.540;2023-07-02T05:39:25;16.10;99.90
21861;DHT22;11095;48.066;8.540;2023-07-02T05:41:51;16.10;99.90
21861;DHT22;11095;48.066;8.540;2023-07-02T05:44:16;16.10;99.90
21861;DHT22;11095;48.066;8.540;2023-07-02T05:46:42;16.20;99.90
21861;DHT22;11095;48.066;8.540;2023-07-02T05:49:08;16.30;99.90
21861;DHT22;11095;48.066;8.540;2023-07-02T05:51:33;16.40;99.90
21861;DHT22;11095;48.066;8.540;2023-07-02T05:53:59;16.70;99.90
21861;DHT22;11095;48.066;8.540;2023-07-02T05:56:24;17.10;99.90
21861;DHT22;11095;48.066;8.540;2023-07-02T05:58:50;17.40;99.90
21861;DHT22;11095;48.066;8.540;2023-07-02T06:01:15;17.70;99.90
21861;DHT22;11095;48.066;8.540;2023-07-02T06:03:42;17.90;99.90
21861;DHT22;11095;48.066;8.540;2023-07-02T06:06:09;18.00;99.90
21861;DHT22;11095;48.066;8.540;2023-07-02T06:08:34;18.00;99.90
21861;DHT22;11095;48.066;8.540;2023-07-02T06:11:00;18.00;99.90
21861;DHT22;11095;48.066;8.540;2023-07-02T06:13:25;18.10;99.90
21861;DHT22;11095;48.066;8.540;2023-07-02T06:15:51;18.10;99.90
21861;DHT22;11095;48.066;8.540;2023-07-02T06:18:16;18.20;99.90
21861;DHT22;11095;48.066;8.540;2023-07-02T06:20:43;18.40;99.90
21861;DHT22;11095;48.066;8.540;2023-07-02T06:23:08;18.50;99.90
21861;DHT22;11095;48.066;8.540;2023-07-02T06:25:34;18.80;99.90
21861;DHT22;11095;48.066;8.540;2023-07-02T06:28:00;19.00;99.90
21861;DHT22;11095;48.066;8.540;2023-07-02T06:30:25;19.20;99.90
21861;DHT22;11095;48.066;8.540;2023-07-02T06:32:51;19.40;99.90
21861;DHT22;11095;48.066;8.540;2023-07-02T06:35:17;19.40;99.90
21861;DHT22;11095;48.066;8.540;2023-07-02T06:37:43;19.60;99.90
21861;DHT22;11095;48.066;8.540;2023-07-02T06:40:09;19.70;99.90
21861;DHT22;11095;48.066;8.540;2023-07-02T06:42:35;19.70;99.90
21861;DHT22;11095;48.066;8.540;2023-07-02T06:45:02;19.70;99.90
21861;DHT22;11095;48.066;8.540;2023-07-02T06:47:27;19.70;99.90
21861;DHT22;11095;48.066;8.540;2023-07-02T06:49:53;19.70;99.90
21861;DHT22;11095;48.066;8.540;2023-07-02T06:52:18;19.60;99.90
21861;DHT22;11095;48.066;8.540;2023-07-02T06:54:44;19.60;99.90
21861;DHT22;11095;48.066;8.540;2023-07-02T06:57:10;19.40;99.90
21861;DHT22;11095;48.066;8.540;2023-07-02T06:59:35;19.30;99.90
21861;DHT22;11095;48.066;8.540;2023-07-02T07:02:02;19.30;99.90
21861;DHT22;11095;48.066;8.540;2023-07-02T07:04:27;19.30;99.90
21861;DHT22;11095;48.066;8.540;2023-07-02T07:06:54;19.20;99.90
21861;DHT22;11095;48.066;8.540;2023-07-02T07:09:21;19.10;99.90
21861;DHT22;11095;48.066;8.540;2023-07-02T07:11:46;19.00;99.90
21861;DHT22;11095;48.066;8.540;2023-07-02T07:14:12;19.00;99.90
21861;DHT22;11095;48.066;8.540;2023-07-02T07:16:38;19.00;99.90
21861;DHT22;11095;48.066;8.540;2023-07-02T07:19:04;19.10;99.90
21861;DHT22;11095;48.066;8.540;2023-07-02T07:21:29;19.40;99.90
21861;DHT22;11095;48.066;8.540;2023-07-02T07:23:55;19.70;99.90
21861;DHT22;11095;48.066;8.540;2023-07-02T07:26:20;20.30;99.90
21861;DHT22;11095;48.066;8.540;2023-07-02T07:28:46;21.10;99.90
21861;DHT22;11095;48.066;8.540;2023-07-02T07:31:11;21.90;99.90
21861;DHT22;11095;48.066;8.540;2023-07-02T07:33:37;22.40;99.90
21861;DHT22;11095;48.066;8.540;2023-07-02T07:36:03;22.50;99.90
21861;DHT22;11095;48.066;8.540;2023-07-02T07:38:28;22.50;99.90
21861;DHT22;11095;48.066;8.540;2023-07-02T07:40:54;22.70;99.90
21861;DHT22;11095;48.066;8.540;2023-07-02T07:43:19;23.00;99.90
21861;DHT22;11095;48.066;8.540;2023-07-02T07:45:45;23.40;99.90
21861;DHT22;11095;48.066;8.540;2023-07-02T07:48:10;23.80;99.90
21861;DHT22;11095;48.066;8.540;2023-07-02T07:50:36;24.00;99.90
21861;DHT22;11095;48.066;8.540;2023-07-02T07:53:02;24.30;99.90
21861;DHT22;11095;48.066;8.540;2023-07-02T07:55:27;24.30;99.90
21861;DHT22;11095;48.066;8.540;2023-07-02T07:57:53;24.30;99.90
21861;DHT22;11095;48.066;8.540;2023-07-02T08:00:18;24.10;99.90
21861;DHT22;11095;48.066;8.540;2023-07-02T08:02:47;24.20;99.90
21861;DHT22;11095;48.066;8.540;2023-07-02T08:05:13;24.30;99.90
21861;DHT22;11095;48.066;8.540;2023-07-02T08:07:39;24.50;99.90
21861;DHT22;11095;48.066;8.540;2023-07-02T08:10:06;24.90;99.90
21861;DHT22;11095;48.066;8.540;2023-07-02T08:12:33;25.60;99.90
21861;DHT22;11095;48.066;8.540;2023-07-02T08:14:59;26.60;99.90
21861;DHT22;11095;48.066;8.540;2023-07-02T08:17:24;27.90;99.90
21861;DHT22;11095;48.066;8.540;2023-07-02T08:19:50;29.20;99.90
21861;DHT22;11095;48.066;8.540;2023-07-02T08:22:15;29.80;99.90
21861;DHT22;11095;48.066;8.540;2023-07-02T08:24:41;30.50;98.60
21861;DHT22;11095;48.066;8.540;2023-07-02T08:27:07;31.10;96.40
21861;DHT22;11095;48.066;8.540;2023-07-02T08:29:32;31.70;94.20
21861;DHT22;11095;48.066;8.540;2023-07-02T08:31:58;32.10;92.40
21861;DHT22;11095;48.066;8.540;2023-07-02T08:34:24;32.00;90.10
21861;DHT22;11095;48.066;8.540;2023-07-02T08:36:49;32.10;89.30
21861;DHT22;11095;48.066;8.540;2023-07-02T08:39:17;32.20;88.80
21861;DHT22;11095;48.066;8.540;2023-07-02T08:41:47;32.20;86.90
21861;DHT22;11095;48.066;8.540;2023-07-02T08:44:20;32.30;85.50
21861;DHT22;11095;48.066;8.540;2023-07-02T08:46:47;32.30;83.50
21861;DHT22;11095;48.066;8.540;2023-07-02T08:49:16;32.50;83.10
21861;DHT22;11095;48.066;8.540;2023-07-02T08:51:45;32.60;82.00
21861;DHT22;11095;48.066;8.540;2023-07-02T08:54:11;32.20;81.80
21861;DHT22;11095;48.066;8.540;2023-07-02T08:56:37;32.00;80.90
21861;DHT22;11095;48.066;8.540;2023-07-02T08:59:03;32.00;81.40
21861;DHT22;11095;48.066;8.540;2023-07-02T09:01:31;32.20;80.50
21861;DHT22;11095;48.066;8.540;2023-07-02T09:03:59;32.60;80.30
21861;DHT22;11095;48.066;8.540;2023-07-02T09:06:25;32.30;78.20
21861;DHT22;11095;48.066;8.540;2023-07-02T09:08:51;32.10;78.80
21861;DHT22;11095;48.066;8.540;2023-07-02T09:11:17;31.70;78.10
21861;DHT22;11095;48.066;8.540;2023-07-02T09:13:49;31.50;79.00
21861;DHT22;11095;48.066;8.540;2023-07-02T09:19:07;30.90;79.90
21861;DHT22;11095;48.066;8.540;2023-07-02T09:21:44;30.80;81.00
21861;DHT22;11095;48.066;8.540;2023-07-02T09:24:17;30.30;80.50
21861;DHT22;11095;48.066;8.540;2023-07-02T09:26:50;30.00;82.00
21861;DHT22;11095;48.066;8.540;2023-07-02T09:29:31;30.20;82.00
21861;DHT22;11095;48.066;8.540;2023-07-02T09:32:05;30.10;82.00
21861;DHT22;11095;48.066;8.540;2023-07-02T09:34:35;30.00;81.70
21861;DHT22;11095;48.066;8.540;2023-07-02T09:37:02;29.90;81.50
21861;DHT22;11095;48.066;8.540;2023-07-02T09:39:31;30.20;82.10
21861;DHT22;11095;48.066;8.540;2023-07-02T09:41:59;30.30;79.70
21861;DHT22;11095;48.066;8.540;2023-07-02T09:44:30;29.70;79.40
21861;DHT22;11095;48.066;8.540;2023-07-02T09:49:37;28.90;82.20
21861;DHT22;11095;48.066;8.540;2023-07-02T09:52:05;28.60;81.90
21861;DHT22;11095;48.066;8.540;2023-07-02T09:54:31;28.50;82.30
21861;DHT22;11095;48.066;8.540;2023-07-02T09:56:58;28.50;82.90
21861;DHT22;11095;48.066;8.540;2023-07-02T09:59:24;28.50;83.00
21861;DHT22;11095;48.066;8.540;2023-07-02T10:01:50;28.30;84.70
21861;DHT22;11095;48.066;8.540;2023-07-02T10:04:18;28.40;83.70
21861;DHT22;11095;48.066;8.540;2023-07-02T10:06:49;28.50;83.20
21861;DHT22;11095;48.066;8.540;2023-07-02T10:09:16;28.50;83.70
21861;DHT22;11095;48.066;8.540;2023-07-02T10:11:42;28.40;82.00
21861;DHT22;11095;48.066;8.540;2023-07-02T10:14:07;28.30;82.30
21861;DHT22;11095;48.066;8.540;2023-07-02T10:16:33;28.00;83.10
21861;DHT22;11095;48.066;8.540;2023-07-02T10:19:11;27.60;84.40
21861;DHT22;11095;48.066;8.540;2023-07-02T10:21:37;27.30;84.50
21861;DHT22;11095;48.066;8.540;2023-07-02T10:24:13;27.10;86.30
21861;DHT22;11095;48.066;8.540;2023-07-02T10:26:54;27.10;86.30
21861;DHT22;11095;48.066;8.540;2023-07-02T10:29:21;27.10;86.90
21861;DHT22;11095;48.066;8.540;2023-07-02T10:31:51;27.20;87.10
21861;DHT22;11095;48.066;8.540;2023-07-02T10:34:34;27.40;86.50
21861;DHT22;11095;48.066;8.540;2023-07-02T10:37:02;27.40;85.50
21861;DHT22;11095;48.066;8.540;2023-07-02T10:39:32;27.10;87.00
21861;DHT22;11095;48.066;8.540;2023-07-02T10:42:04;26.90;87.30
21861;DHT22;11095;48.066;8.540;2023-07-02T10:44:30;26.90;85.50
21861;DHT22;11095;48.066;8.540;2023-07-02T10:46:57;26.80;87.00
21861;DHT22;11095;48.066;8.540;2023-07-02T10:49:30;26.70;87.00
21861;DHT22;11095;48.066;8.540;2023-07-02T10:51:57;26.40;88.00
21861;DHT22;11095;48.066;8.540;2023-07-02T10:54:23;26.50;87.70
21861;DHT22;11095;48.066;8.540;2023-07-02T10:56:49;26.60;87.80
21861;DHT22;11095;48.066;8.540;2023-07-02T10:59:24;26.70;86.90
21861;DHT22;11095;48.066;8.540;2023-07-02T11:01:50;26.70;86.30
21861;DHT22;11095;48.066;8.540;2023-07-02T11:04:16;27.00;87.40
21861;DHT22;11095;48.066;8.540;2023-07-02T11:06:42;26.80;87.50
21861;DHT22;11095;48.066;8.540;2023-07-02T11:09:16;26.40;86.50
21861;DHT22;11095;48.066;8.540;2023-07-02T11:11:54;26.20;89.10
21861;DHT22;11095;48.066;8.540;2023-07-02T11:14:35;26.00;90.40
21861;DHT22;11095;48.066;8.540;2023-07-02T11:17:05;26.00;90.30
21861;DHT22;11095;48.066;8.540;2023-07-02T11:19:32;26.00;90.20
21861;DHT22;11095;48.066;8.540;2023-07-02T11:21:58;26.10;89.30
21861;DHT22;11095;48.066;8.540;2023-07-02T11:24:35;26.00;90.20
21861;DHT22;11095;48.066;8.540;2023-07-02T11:27:03;25.90;89.20
21861;DHT22;11095;48.066;8.540;2023-07-02T11:29:29;25.80;88.70
21861;DHT22;11095;48.066;8.540;2023-07-02T11:32:05;25.80;90.10
21861;DHT22;11095;48.066;8.540;2023-07-02T11:34:30;25.70;89.30
21861;DHT22;11095;48.066;8.540;2023-07-02T11:36:56;25.70;90.00
21861;DHT22;11095;48.066;8.540;2023-07-02T11:39:21;25.50;89.90
21861;DHT22;11095;48.066;8.540;2023-07-02T11:41:47;25.60;90.50
21861;DHT22;11095;48.066;8.540;2023-07-02T11:44:14;25.60;90.10
21861;DHT22;11095;48.066;8.540;2023-07-02T11:46:40;25.60;90.70
21861;DHT22;11095;48.066;8.540;2023-07-02T11:49:06;25.50;90.60
21861;DHT22;11095;48.066;8.540;2023-07-02T11:51:35;25.30;90.40
21861;DHT22;11095;48.066;8.540;2023-07-02T11:54:00;25.10;90.90
21861;DHT22;11095;48.066;8.540;2023-07-02T11:56:26;25.10;90.80
21861;DHT22;11095;48.066;8.540;2023-07-02T11:58:51;25.00;90.90
21861;DHT22;11095;48.066;8.540;2023-07-02T12:01:17;24.90;91.70
21861;DHT22;11095;48.066;8.540;2023-07-02T12:03:44;24.80;91.80
21861;DHT22;11095;48.066;8.540;2023-07-02T12:06:10;24.70;91.00
21861;DHT22;11095;48.066;8.540;2023-07-02T12:08:35;24.50;91.70
21861;DHT22;11095;48.066;8.540;2023-07-02T12:11:01;24.30;91.50
21861;DHT22;11095;48.066;8.540;2023-07-02T12:13:27;24.30;92.40
21861;DHT22;11095;48.066;8.540;2023-07-02T12:15:52;24.30;92.50
21861;DHT22;11095;48.066;8.540;2023-07-02T12:18:18;24.30;92.80
21861;DHT22;11095;48.066;8.540;2023-07-02T12:20:43;24.50;93.00
21861;DHT22;11095;48.066;8.540;2023-07-02T12:23:09;24.40;92.80
21861;DHT22;11095;48.066;8.540;2023-07-02T12:25:36;24.40;93.20
21861;DHT22;11095;48.066;8.540;2023-07-02T12:28:03;24.40;93.20
21861;DHT22;11095;48.066;8.540;2023-07-02T12:30:29;24.20;93.00
21861;DHT22;11095;48.066;8.540;2023-07-02T12:32:55;24.20;93.30
21861;DHT22;11095;48.066;8.540;2023-07-02T12:35:21;24.40;93.80
21861;DHT22;11095;48.066;8.540;2023-07-02T12:37:47;24.50;93.30
21861;DHT22;11095;48.066;8.540;2023-07-02T12:40:13;24.60;93.70
21861;DHT22;11095;48.066;8.540;2023-07-02T12:42:41;24.70;93.30
21861;DHT22;11095;48.066;8.540;2023-07-02T12:45:08;24.80;93.40
21861;DHT22;11095;48.066;8.540;2023-07-02T12:47:33;24.70;93.30
21861;DHT22;11095;48.066;8.540;2023-07-02T12:49:59;24.60;93.70
21861;DHT22;11095;48.066;8.540;2023-07-02T12:52:25;24.40;93.80
21861;DHT22;11095;48.066;8.540;2023-07-02T12:54:50;24.30;94.30
21861;DHT22;11095;48.066;8.540;2023-07-02T12:57:17;24.40;94.10
21861;DHT22;11095;48.066;8.540;2023-07-02T12:59:43;24.50;94.10
21861;DHT22;11095;48.066;8.540;2023-07-02T13:02:10;24.40;93.90
21861;DHT22;11095;48.066;8.540;2023-07-02T13:04:35;24.40;94.20
21861;DHT22;11095;48.066;8.540;2023-07-02T13:07:01;24.20;94.30
21861;DHT22;11095;48.066;8.540;2023-07-02T13:09:26;24.10;94.50
21861;DHT22;11095;48.066;8.540;2023-07-02T13:11:52;24.10;94.90
21861;DHT22;11095;48.066;8.540;2023-07-02T13:14:17;24.10;95.00
21861;DHT22;11095;48.066;8.540;2023-07-02T13:16:43;24.00;95.50
21861;DHT22;11095;48.066;8.540;2023-07-02T13:19:08;23.90;95.70
21861;DHT22;11095;48.066;8.540;2023-07-02T13:21:34;23.90;95.90
21861;DHT22;11095;48.066;8.540;2023-07-02T13:24:00;23.90;96.30
21861;DHT22;11095;48.066;8.540;2023-07-02T13:26:25;24.10;96.20
21861;DHT22;11095;48.066;8.540;2023-07-02T13:28:51;24.10;96.30
21861;DHT22;11095;48.066;8.540;2023-07-02T13:31:16;24.30;95.60
21861;DHT22;11095;48.066;8.540;2023-07-02T13:33:42;24.50;95.00
21861;DHT22;11095;48.066;8.540;2023-07-02T13:36:08;24.50;95.40
21861;DHT22;11095;48.066;8.540;2023-07-02T13:38:34;24.40;95.10
21861;DHT22;11095;48.066;8.540;2023-07-02T13:41:00;24.30;95.00
21861;DHT22;11095;48.066;8.540;2023-07-02T13:43:26;24.30;95.10
21861;DHT22;11095;48.066;8.540;2023-07-02T13:45:52;24.30;94.80
21861;DHT22;11095;48.066;8.540;2023-07-02T13:48:17;24.20;95.00
21861;DHT22;11095;48.066;8.540;2023-07-02T13:50:43;23.90;95.80
21861;DHT22;11095;48.066;8.540;2023-07-02T13:53:09;23.70;96.10
21861;DHT22;11095;48.066;8.540;2023-07-02T13:55:34;23.70;95.80
21861;DHT22;11095;48.066;8.540;2023-07-02T13:58:00;23.80;95.90
21861;DHT22;11095;48.066;8.540;2023-07-02T14:00:27;24.00;96.30
21861;DHT22;11095;48.066;8.540;2023-07-02T14:02:53;24.00;95.90
21861;DHT22;11095;48.066;8.540;2023-07-02T14:05:19;24.10;95.50
21861;DHT22;11095;48.066;8.540;2023-07-02T14:07:44;24.00;95.50
21861;DHT22;11095;48.066;8.540;2023-07-02T14:10:10;23.80;95.60
21861;DHT22;11095;48.066;8.540;2023-07-02T14:12:38;23.70;95.50
21861;DHT22;11095;48.066;8.540;2023-07-02T14:15:04;23.70;96.40
21861;DHT22;11095;48.066;8.540;2023-07-02T14:17:29;23.70;96.40
21861;DHT22;11095;48.066;8.540;2023-07-02T14:19:55;23.70;96.20
21861;DHT22;11095;48.066;8.540;2023-07-02T14:22:20;24.00;95.60
21861;DHT22;11095;48.066;8.540;2023-07-02T14:24:46;24.10;95.20
21861;DHT22;11095;48.066;8.540;2023-07-02T14:27:11;24.20;94.70
21861;DHT22;11095;48.066;8.540;2023-07-02T14:29:37;24.20;94.30
21861;DHT22;11095;48.066;8.540;2023-07-02T14:32:03;24.10;94.60
21861;DHT22;11095;48.066;8.540;2023-07-02T14:34:29;24.10;94.00
21861;DHT22;11095;48.066;8.540;2023-07-02T14:36:55;24.20;94.20
21861;DHT22;11095;48.066;8.540;2023-07-02T14:39:21;24.30;94.00
21861;DHT22;11095;48.066;8.540;2023-07-02T14:41:48;24.20;94.10
21861;DHT22;11095;48.066;8.540;2023-07-02T14:44:13;24.30;92.70
21861;DHT22;11095;48.066;8.540;2023-07-02T14:46:39;24.40;91.90
21861;DHT22;11095;48.066;8.540;2023-07-02T14:49:04;24.20;91.50
21861;DHT22;11095;48.066;8.540;2023-07-02T14:51:30;24.00;91.90
21861;DHT22;11095;48.066;8.540;2023-07-02T14:53:56;24.10;91.90
21861;DHT22;11095;48.066;8.540;2023-07-02T14:56:22;24.20;92.10
21861;DHT22;11095;48.066;8.540;2023-07-02T14:58:47;24.30;92.20
21861;DHT22;11095;48.066;8.540;2023-07-02T15:01:14;24.30;91.80
21861;DHT22;11095;48.066;8.540;2023-07-02T15:03:39;24.40;91.60
21861;DHT22;11095;48.066;8.540;2023-07-02T15:06:13;24.40;91.50
21861;DHT22;11095;48.066;8.540;2023-07-02T15:08:40;24.40;91.40
21861;DHT22;11095;48.066;8.540;2023-07-02T15:11:06;24.30;91.60
21861;DHT22;11095;48.066;8.540;2023-07-02T15:13:31;24.20;91.60
21861;DHT22;11095;48.066;8.540;2023-07-02T15:15:57;24.10;91.60
21861;DHT22;11095;48.066;8.540;2023-07-02T15:18:23;24.10;91.50
21861;DHT22;11095;48.066;8.540;2023-07-02T15:20:51;24.10;90.60
21861;DHT22;11095;48.066;8.540;2023-07-02T15:23:22;24.10;90.90
21861;DHT22;11095;48.066;8.540;2023-07-02T15:25:56;24.00;91.80
21861;DHT22;11095;48.066;8.540;2023-07-02T15:28:22;23.90;92.30
21861;DHT22;11095;48.066;8.540;2023-07-02T15:30:58;23.90;90.50